sensor_id;sensor_type;location;lat;lon;timestamp;temperature;humidity
65038;DHT22;51605;47.040;15.294;2022-07-30T00:01:27;24.40;52.80
65038;DHT22;51605;47.040;15.294;2022-07-30T00:03:53;24.30;52.90
65038;DHT22;51605;47.040;15.294;2022-07-30T00:06:18;24.40;52.80
65038;DHT22;51605;47.040;15.294;2022-07-30T00:08:44;24.40;52.80
65038;DHT22;51605;47.040;15.294;2022-07-30T00:11:09;24.40;52.80
65038;DHT22;51605;47.040;15.294;2022-07-30T00:13:36;24.40;52.80
65038;DHT22;51605;47.040;15.294;2022-07-30T00:16:02;24.40;52.70
65038;DHT22;51605;47.040;15.294;2022-07-30T00:18:28;24.40;52.70
65038;DHT22;51605;47.040;15.294;2022-07-30T00:20:53;24.40;52.80
65038;DHT22;51605;47.040;15.294;2022-07-30T00:23:19;24.40;52.80
65038;DHT22;51605;47.040;15.294;2022-07-30T00:25:45;24.40;52.80
65038;DHT22;51605;47.040;15.294;2022-07-30T00:28:10;24.40;52.80
65038;DHT22;51605;47.040;15.294;2022-07-30T00:30:36;24.40;52.70
65038;DHT22;51605;47.040;15.294;2022-07-30T00:33:03;24.40;52.60
65038;DHT22;51605;47.040;15.294;2022-07-30T00:35:28;24.40;52.60
65038;DHT22;51605;47.040;15.294;2022-07-30T00:37:54;24.40;52.60
65038;DHT22;51605;47.040;15.294;2022-07-30T00:40:20;24.50;52.60
65038;DHT22;51605;47.040;15.294;2022-07-30T00:42:46;24.40;52.60
65038;DHT22;51605;47.040;15.294;2022-07-30T00:45:14;24.40;52.70
65038;DHT22;51605;47.040;15.294;2022-07-30T00:47:40;24.40;52.60
65038;DHT22;51605;47.040;15.294;2022-07-30T00:50:08;24.40;52.60
65038;DHT22;51605;47.040;15.294;2022-07-30T00:52:35;24.40;52.70
65038;DHT22;51605;47.040;15.294;2022-07-30T00:55:03;24.40;52.70
65038;DHT22;51605;47.040;15.294;2022-07-30T00:57:29;24.40;52.60
65038;DHT22;51605;47.040;15.294;2022-07-30T00:59:55;24.40;52.60
65038;DHT22;51605;47.040;15.294;2022-07-30T01:02:20;24.40;52.60
65038;DHT22;51605;47.040;15.294;2022-07-30T01:04:46;24.40;52.70
65038;DHT22;51605;47.040;15.294;2022-07-30T01:07:12;24.40;52.60
65038;DHT22;51605;47.040;15.294;2022-07-30T01:09:38;24.40;52.60
65038;DHT22;51605;47.040;15.294;2022-07-30T01:12:05;24.40;52.60
65038;DHT22;51605;47.040;15.294;2022-07-30T01:14:35;24.40;52.60
65038;DHT22;51605;47.040;15.294;2022-07-30T01:17:02;24.40;52.60
65038;DHT22;51605;47.040;15.294;2022-07-30T01:19:36;24.40;52.60
65038;DHT22;51605;47.040;15.294;2022-07-30T01:22:26;24.40;52.70
65038;DHT22;51605;47.040;15.294;2022-07-30T01:27:31;24.40;52.70
65038;DHT22;51605;47.040;15.294;2022-07-30T01:30:02;24.40;52.60
65038;DHT22;51605;47.040;15.294;2022-07-30T01:32:28;24.40;52.70
65038;DHT22;51605;47.040;15.294;2022-07-30T01:34:56;24.40;52.70
65038;DHT22;51605;47.040;15.294;2022-07-30T01:37:23;24.40;52.70
65038;DHT22;51605;47.040;15.294;2022-07-30T01:39:50;24.40;52.70
65038;DHT22;51605;47.040;15.294;2022-07-30T01:42:18;24.40;52.80
65038;DHT22;51605;47.040;15.294;2022-07-30T01:44:45;24.40;52.70
65038;DHT22;51605;47.040;15.294;2022-07-30T01:47:13;24.40;52.70
65038;DHT22;51605;47.040;15.294;2022-07-30T01:49:40;24.40;52.80
65038;DHT22;51605;47.040;15.294;2022-07-30T01:52:07;24.40;52.70
65038;DHT22;51605;47.040;15.294;2022-07-30T01:54:34;24.40;52.70
65038;DHT22;51605;47.040;15.294;2022-07-30T01:57:01;24.40;52.70
65038;DHT22;51605;47.040;15.294;2022-07-30T01:59:28;24.40;52.60
65038;DHT22;51605;47.040;15.294;2022-07-30T02:01:55;24.50;52.60
65038;DHT22;51605;47.040;15.294;2022-07-30T02:04:21;24.40;52.60
65038;DHT22;51605;47.040;15.294;2022-07-30T02:07:09;24.40;52.60
65038;DHT22;51605;47.040;15.294;2022-07-30T02:09:42;24.40;52.60
65038;DHT22;51605;47.040;15.294;2022-07-30T02:12:14;24.40;52.60
65038;DHT22;51605;47.040;15.294;2022-07-30T02:17:28;24.40;52.70
65038;DHT22;51605;47.040;15.294;2022-07-30T02:19:58;24.40;52.80
65038;DHT22;51605;47.040;15.294;2022-07-30T02:22:27;24.40;52.80
65038;DHT22;51605;47.040;15.294;2022-07-30T02:24:59;24.40;52.80
65038;DHT22;51605;47.040;15.294;2022-07-30T02:27:27;24.40;52.80
65038;DHT22;51605;47.040;15.294;2022-07-30T02:29:57;24.40;52.80
65038;DHT22;51605;47.040;15.294;2022-07-30T02:32:25;24.30;52.90
65038;DHT22;51605;47.040;15.294;2022-07-30T02:34:56;24.30;52.90
65038;DHT22;51605;47.040;15.294;2022-07-30T02:37:23;24.30;52.90
65038;DHT22;51605;47.040;15.294;2022-07-30T02:39:52;24.30;52.90
65038;DHT22;51605;47.040;15.294;2022-07-30T02:42:20;24.30;52.90
65038;DHT22;51605;47.040;15.294;2022-07-30T02:44:48;24.30;52.90
65038;DHT22;51605;47.040;15.294;2022-07-30T02:47:15;24.30;52.90
65038;DHT22;51605;47.040;15.294;2022-07-30T02:49:42;24.30;52.90
65038;DHT22;51605;47.040;15.294;2022-07-30T02:52:11;24.40;52.90
65038;DHT22;51605;47.040;15.294;2022-07-30T02:54:39;24.30;52.90
65038;DHT22;51605;47.040;15.294;2022-07-30T02:57:07;24.30;52.90
65038;DHT22;51605;47.040;15.294;2022-07-30T02:59:35;24.30;52.90
65038;DHT22;51605;47.040;15.294;2022-07-30T03:02:02;24.30;53.90
65038;DHT22;51605;47.040;15.294;2022-07-30T03:04:30;24.30;52.90
65038;DHT22;51605;47.040;15.294;2022-07-30T03:06:58;24.40;52.90
65038;DHT22;51605;47.040;15.294;2022-07-30T03:09:25;24.30;52.90
65038;DHT22;51605;47.040;15.294;2022-07-30T03:11:51;24.40;52.90
65038;DHT22;51605;47.040;15.294;2022-07-30T03:14:18;24.40;52.90
65038;DHT22;51605;47.040;15.294;2022-07-30T03:16:47;24.40;52.90
65038;DHT22;51605;47.040;15.294;2022-07-30T03:19:14;24.30;52.90
65038;DHT22;51605;47.040;15.294;2022-07-30T03:21:42;24.30;52.90
65038;DHT22;51605;47.040;15.294;2022-07-30T03:24:10;24.40;52.80
65038;DHT22;51605;47.040;15.294;2022-07-30T03:26:38;24.40;52.80
65038;DHT22;51605;47.040;15.294;2022-07-30T03:29:06;24.40;52.90
65038;DHT22;51605;47.040;15.294;2022-07-30T03:31:34;24.40;52.90
65038;DHT22;51605;47.040;15.294;2022-07-30T03:34:01;24.40;52.90
65038;DHT22;51605;47.040;15.294;2022-07-30T03:36:28;24.40;52.90
65038;DHT22;51605;47.040;15.294;2022-07-30T03:38:54;24.40;52.90
65038;DHT22;51605;47.040;15.294;2022-07-30T03:41:20;24.40;52.90
65038;DHT22;51605;47.040;15.294;2022-07-30T03:43:47;24.40;52.90
65038;DHT22;51605;47.040;15.294;2022-07-30T03:46:13;24.40;52.70
65038;DHT22;51605;47.040;15.294;2022-07-30T03:48:40;24.40;52.80
65038;DHT22;51605;47.040;15.294;2022-07-30T03:51:06;24.40;52.80
65038;DHT22;51605;47.040;15.294;2022-07-30T03:53:34;24.40;52.90
65038;DHT22;51605;47.040;15.294;2022-07-30T03:56:01;24.30;52.90
65038;DHT22;51605;47.040;15.294;2022-07-30T03:58:27;24.30;52.90
65038;DHT22;51605;47.040;15.294;2022-07-30T04:00:53;24.40;52.90
65038;DHT22;51605;47.040;15.294;2022-07-30T04:03:29;24.40;53.80
65038;DHT22;51605;47.040;15.294;2022-07-30T04:05:55;24.40;52.80
65038;DHT22;51605;47.040;15.294;2022-07-30T04:08:21;24.40;52.80
65038;DHT22;51605;47.040;15.294;2022-07-30T04:10:48;24.40;52.80
65038;DHT22;51605;47.040;15.294;2022-07-30T04:13:13;24.40;52.90
65038;DHT22;51605;47.040;15.294;2022-07-30T04:15:58;24.40;52.90
65038;DHT22;51605;47.040;15.294;2022-07-30T04:18:27;24.40;52.90
65038;DHT22;51605;47.040;15.294;2022-07-30T04:20:57;24.40;52.80
65038;DHT22;51605;47.040;15.294;2022-07-30T04:23:24;24.40;52.80
65038;DHT22;51605;47.040;15.294;2022-07-30T04:25:50;24.40;52.80
65038;DHT22;51605;47.040;15.294;2022-07-30T04:28:16;24.40;52.80
65038;DHT22;51605;47.040;15.294;2022-07-30T04:30:42;24.40;52.80
65038;DHT22;51605;47.040;15.294;2022-07-30T04:33:08;24.40;52.90
65038;DHT22;51605;47.040;15.294;2022-07-30T04:35:34;24.40;52.80
65038;DHT22;51605;47.040;15.294;2022-07-30T04:38:00;24.40;52.90
65038;DHT22;51605;47.040;15.294;2022-07-30T04:40:28;24.40;52.80
65038;DHT22;51605;47.040;15.294;2022-07-30T04:42:56;24.40;52.80
65038;DHT22;51605;47.040;15.294;2022-07-30T04:45:22;24.40;52.90
65038;DHT22;51605;47.040;15.294;2022-07-30T04:47:47;24.30;53.80
65038;DHT22;51605;47.040;15.294;2022-07-30T04:50:14;24.30;52.80
65038;DHT22;51605;47.040;15.294;2022-07-30T04:52:42;24.30;52.90
65038;DHT22;51605;47.040;15.294;2022-07-30T04:55:09;24.30;53.00
65038;DHT22;51605;47.040;15.294;2022-07-30T04:57:36;24.30;52.90
65038;DHT22;51605;47.040;15.294;2022-07-30T05:00:04;24.30;52.90
65038;DHT22;51605;47.040;15.294;2022-07-30T05:02:32;24.30;52.90
65038;DHT22;51605;47.040;15.294;2022-07-30T05:05:00;24.30;53.00
65038;DHT22;51605;47.040;15.294;2022-07-30T05:07:26;24.30;52.90
65038;DHT22;51605;47.040;15.294;2022-07-30T05:09:52;24.30;53.00
65038;DHT22;51605;47.040;15.294;2022-07-30T05:12:18;24.30;52.90
65038;DHT22;51605;47.040;15.294;2022-07-30T05:14:44;24.30;53.00
65038;DHT22;51605;47.040;15.294;2022-07-30T05:17:09;24.30;53.00
65038;DHT22;51605;47.040;15.294;2022-07-30T05:19:37;24.30;52.90
65038;DHT22;51605;47.040;15.294;2022-07-30T05:22:03;24.30;52.90
65038;DHT22;51605;47.040;15.294;2022-07-30T05:24:29;24.40;53.00
65038;DHT22;51605;47.040;15.294;2022-07-30T05:26:54;24.30;52.90
65038;DHT22;51605;47.040;15.294;2022-07-30T05:29:20;24.40;52.90
65038;DHT22;51605;47.040;15.294;2022-07-30T05:31:46;24.40;52.90
65038;DHT22;51605;47.040;15.294;2022-07-30T05:34:12;24.30;52.90
65038;DHT22;51605;47.040;15.294;2022-07-30T05:36:37;24.40;52.90
65038;DHT22;51605;47.040;15.294;2022-07-30T05:39:03;24.30;52.90
65038;DHT22;51605;47.040;15.294;2022-07-30T05:41:28;24.40;52.90
65038;DHT22;51605;47.040;15.294;2022-07-30T05:43:55;24.40;52.90
65038;DHT22;51605;47.040;15.294;2022-07-30T05:46:21;24.40;53.00
65038;DHT22;51605;47.040;15.294;2022-07-30T05:48:46;24.30;52.90
65038;DHT22;51605;47.040;15.294;2022-07-30T05:51:12;24.30;52.90
65038;DHT22;51605;47.040;15.294;2022-07-30T05:53:38;24.30;52.90
65038;DHT22;51605;47.040;15.294;2022-07-30T05:56:03;24.30;52.90
65038;DHT22;51605;47.040;15.294;2022-07-30T05:58:29;24.40;53.00
65038;DHT22;51605;47.040;15.294;2022-07-30T06:00:55;24.30;52.90
65038;DHT22;51605;47.040;15.294;2022-07-30T06:03:20;24.30;53.00
65038;DHT22;51605;47.040;15.294;2022-07-30T06:05:46;24.30;52.90
65038;DHT22;51605;47.040;15.294;2022-07-30T06:08:12;24.30;52.90
65038;DHT22;51605;47.040;15.294;2022-07-30T06:10:37;24.30;52.90
65038;DHT22;51605;47.040;15.294;2022-07-30T06:13:03;24.30;52.90
65038;DHT22;51605;47.040;15.294;2022-07-30T06:15:28;24.30;52.90
65038;DHT22;51605;47.040;15.294;2022-07-30T06:17:54;24.30;52.90
65038;DHT22;51605;47.040;15.294;2022-07-30T06:20:20;24.30;53.00
65038;DHT22;51605;47.040;15.294;2022-07-30T06:22:46;24.30;53.00
65038;DHT22;51605;47.040;15.294;2022-07-30T06:25:12;24.30;52.90
65038;DHT22;51605;47.040;15.294;2022-07-30T06:27:38;24.30;53.00
65038;DHT22;51605;47.040;15.294;2022-07-30T06:30:06;24.30;52.90
65038;DHT22;51605;47.040;15.294;2022-07-30T06:32:32;24.30;52.90
65038;DHT22;51605;47.040;15.294;2022-07-30T06:34:58;24.30;52.90
65038;DHT22;51605;47.040;15.294;2022-07-30T06:37:24;24.30;52.90
65038;DHT22;51605;47.040;15.294;2022-07-30T06:39:50;24.30;52.90
65038;DHT22;51605;47.040;15.294;2022-07-30T06:42:15;24.30;52.90
65038;DHT22;51605;47.040;15.294;2022-07-30T06:44:42;24.30;52.90
65038;DHT22;51605;47.040;15.294;2022-07-30T06:47:07;24.30;52.90
65038;DHT22;51605;47.040;15.294;2022-07-30T06:49:34;24.30;52.90
65038;DHT22;51605;47.040;15.294;2022-07-30T06:52:00;24.30;52.90
65038;DHT22;51605;47.040;15.294;2022-07-30T06:54:26;24.30;53.00
65038;DHT22;51605;47.040;15.294;2022-07-30T06:56:52;24.30;53.00
65038;DHT22;51605;47.040;15.294;2022-07-30T06:59:18;24.30;53.00
65038;DHT22;51605;47.040;15.294;2022-07-30T07:01:44;24.30;53.00
65038;DHT22;51605;47.040;15.294;2022-07-30T07:04:10;24.30;52.90
65038;DHT22;51605;47.040;15.294;2022-07-30T07:06:36;24.40;52.90
65038;DHT22;51605;47.040;15.294;2022-07-30T07:09:02;24.30;52.80
65038;DHT22;51605;47.040;15.294;2022-07-30T07:11:28;24.40;52.80
65038;DHT22;51605;47.040;15.294;2022-07-30T07:13:54;24.40;52.90
65038;DHT22;51605;47.040;15.294;2022-07-30T07:16:19;24.40;52.90
65038;DHT22;51605;47.040;15.294;2022-07-30T07:18:49;24.30;52.90
65038;DHT22;51605;47.040;15.294;2022-07-30T07:21:16;24.30;52.90
65038;DHT22;51605;47.040;15.294;2022-07-30T07:23:42;24.30;53.00
65038;DHT22;51605;47.040;15.294;2022-07-30T07:26:09;24.30;52.90
65038;DHT22;51605;47.040;15.294;2022-07-30T07:28:35;24.30;52.90
65038;DHT22;51605;47.040;15.294;2022-07-30T07:31:00;24.30;52.90
65038;DHT22;51605;47.040;15.294;2022-07-30T07:33:26;24.30;53.00
65038;DHT22;51605;47.040;15.294;2022-07-30T07:35:51;24.30;52.90
65038;DHT22;51605;47.040;15.294;2022-07-30T07:38:19;24.40;53.00
65038;DHT22;51605;47.040;15.294;2022-07-30T07:40:45;24.30;52.90
65038;DHT22;51605;47.040;15.294;2022-07-30T07:43:12;24.40;53.00
65038;DHT22;51605;47.040;15.294;2022-07-30T07:45:39;24.30;52.90
65038;DHT22;51605;47.040;15.294;2022-07-30T07:48:05;24.30;53.00
65038;DHT22;51605;47.040;15.294;2022-07-30T07:50:31;24.30;53.00
65038;DHT22;51605;47.040;15.294;2022-07-30T07:52:59;24.30;52.80
65038;DHT22;51605;47.040;15.294;2022-07-30T07:55:25;24.30;52.90
65038;DHT22;51605;47.040;15.294;2022-07-30T07:57:51;24.30;53.00
65038;DHT22;51605;47.040;15.294;2022-07-30T08:00:17;24.40;53.00
65038;DHT22;51605;47.040;15.294;2022-07-30T08:02:43;24.40;53.00
65038;DHT22;51605;47.040;15.294;2022-07-30T08:05:09;24.40;53.00
65038;DHT22;51605;47.040;15.294;2022-07-30T08:07:37;24.40;53.10
65038;DHT22;51605;47.040;15.294;2022-07-30T08:10:04;24.40;53.00
65038;DHT22;51605;47.040;15.294;2022-07-30T08:12:30;24.40;53.00
65038;DHT22;51605;47.040;15.294;2022-07-30T08:14:59;24.40;53.00
65038;DHT22;51605;47.040;15.294;2022-07-30T08:17:24;24.40;53.10
65038;DHT22;51605;47.040;15.294;2022-07-30T08:19:50;24.40;53.00
65038;DHT22;51605;47.040;15.294;2022-07-30T08:22:16;24.40;53.00
65038;DHT22;51605;47.040;15.294;2022-07-30T08:24:42;24.40;53.00
65038;DHT22;51605;47.040;15.294;2022-07-30T08:27:07;24.40;53.00
65038;DHT22;51605;47.040;15.294;2022-07-30T08:29:33;24.40;53.10
65038;DHT22;51605;47.040;15.294;2022-07-30T08:32:02;24.40;53.00
65038;DHT22;51605;47.040;15.294;2022-07-30T08:34:28;24.40;53.00
65038;DHT22;51605;47.040;15.294;2022-07-30T08:36:54;24.40;53.00
65038;DHT22;51605;47.040;15.294;2022-07-30T08:39:20;24.40;53.10
65038;DHT22;51605;47.040;15.294;2022-07-30T08:41:46;24.40;53.10
65038;DHT22;51605;47.040;15.294;2022-07-30T08:44:16;24.40;53.10
65038;DHT22;51605;47.040;15.294;2022-07-30T08:46:45;24.40;53.10
65038;DHT22;51605;47.040;15.294;2022-07-30T08:49:11;24.40;53.10
65038;DHT22;51605;47.040;15.294;2022-07-30T08:51:37;24.40;53.10
65038;DHT22;51605;47.040;15.294;2022-07-30T08:54:03;24.40;53.10
65038;DHT22;51605;47.040;15.294;2022-07-30T08:56:31;24.40;53.50
65038;DHT22;51605;47.040;15.294;2022-07-30T08:58:58;24.40;53.10
65038;DHT22;51605;47.040;15.294;2022-07-30T09:01:24;24.40;53.10
65038;DHT22;51605;47.040;15.294;2022-07-30T09:03:50;24.40;53.10
65038;DHT22;51605;47.040;15.294;2022-07-30T09:06:16;24.40;53.10
65038;DHT22;51605;47.040;15.294;2022-07-30T09:08:42;24.40;53.10
65038;DHT22;51605;47.040;15.294;2022-07-30T09:11:07;24.40;53.10
65038;DHT22;51605;47.040;15.294;2022-07-30T09:13:35;24.40;53.10
65038;DHT22;51605;47.040;15.294;2022-07-30T09:16:03;24.40;53.20
65038;DHT22;51605;47.040;15.294;2022-07-30T09:18:40;24.40;53.20
65038;DHT22;51605;47.040;15.294;2022-07-30T09:21:17;24.50;53.30
65038;DHT22;51605;47.040;15.294;2022-07-30T09:24:00;24.40;53.20
65038;DHT22;51605;47.040;15.294;2022-07-30T09:26:30;24.40;53.20
65038;DHT22;51605;47.040;15.294;2022-07-30T09:29:17;24.40;53.20
65038;DHT22;51605;47.040;15.294;2022-07-30T09:34:29;24.40;53.20
65038;DHT22;51605;47.040;15.294;2022-07-30T09:37:01;24.40;53.20
65038;DHT22;51605;47.040;15.294;2022-07-30T09:39:31;24.40;53.20
65038;DHT22;51605;47.040;15.294;2022-07-30T09:41:57;24.40;53.20
65038;DHT22;51605;47.040;15.294;2022-07-30T09:44:24;24.40;53.20
65038;DHT22;51605;47.040;15.294;2022-07-30T09:46:51;24.40;53.20
65038;DHT22;51605;47.040;15.294;2022-07-30T09:49:24;24.40;53.30
65038;DHT22;51605;47.040;15.294;2022-07-30T09:51:51;24.40;53.10
65038;DHT22;51605;47.040;15.294;2022-07-30T09:54:20;24.50;53.10
65038;DHT22;51605;47.040;15.294;2022-07-30T09:56:46;24.50;54.00
65038;DHT22;51605;47.040;15.294;2022-07-30T09:59:30;24.50;53.00
65038;DHT22;51605;47.040;15.294;2022-07-30T10:01:56;24.50;53.00
65038;DHT22;51605;47.040;15.294;2022-07-30T10:04:27;24.50;53.10
65038;DHT22;51605;47.040;15.294;2022-07-30T10:06:54;24.50;53.10
65038;DHT22;51605;47.040;15.294;2022-07-30T10:09:31;24.40;53.10
65038;DHT22;51605;47.040;15.294;2022-07-30T10:11:58;24.40;53.10
65038;DHT22;51605;47.040;15.294;2022-07-30T10:14:29;24.50;53.20
65038;DHT22;51605;47.040;15.294;2022-07-30T10:16:55;24.50;53.20
65038;DHT22;51605;47.040;15.294;2022-07-30T10:19:21;24.40;53.10
65038;DHT22;51605;47.040;15.294;2022-07-30T10:21:48;24.50;53.20
65038;DHT22;51605;47.040;15.294;2022-07-30T10:24:19;24.50;53.20
65038;DHT22;51605;47.040;15.294;2022-07-30T10:26:50;24.40;53.30
65038;DHT22;51605;47.040;15.294;2022-07-30T10:29:18;24.40;53.60
65038;DHT22;51605;47.040;15.294;2022-07-30T10:31:46;24.40;53.60
65038;DHT22;51605;47.040;15.294;2022-07-30T10:34:12;24.50;54.60
65038;DHT22;51605;47.040;15.294;2022-07-30T10:36:42;24.50;53.90
65038;DHT22;51605;47.040;15.294;2022-07-30T10:39:11;24.60;54.10
65038;DHT22;51605;47.040;15.294;2022-07-30T10:41:51;24.60;54.30
65038;DHT22;51605;47.040;15.294;2022-07-30T10:44:46;24.60;54.50
65038;DHT22;51605;47.040;15.294;2022-07-30T10:47:18;24.70;54.40
65038;DHT22;51605;47.040;15.294;2022-07-30T10:50:07;24.70;54.40
65038;DHT22;51605;47.040;15.294;2022-07-30T10:55:17;24.80;54.40
65038;DHT22;51605;47.040;15.294;2022-07-30T10:58:08;24.80;54.30
65038;DHT22;51605;47.040;15.294;2022-07-30T11:03:26;24.80;54.40
65038;DHT22;51605;47.040;15.294;2022-07-30T11:08:42;24.90;54.40
65038;DHT22;51605;47.040;15.294;2022-07-30T11:14:00;24.90;54.40
65038;DHT22;51605;47.040;15.294;2022-07-30T11:21:34;24.90;54.40
65038;DHT22;51605;47.040;15.294;2022-07-30T11:24:00;24.90;54.40
65038;DHT22;51605;47.040;15.294;2022-07-30T11:26:47;24.90;54.40
65038;DHT22;51605;47.040;15.294;2022-07-30T11:32:29;24.90;54.50
65038;DHT22;51605;47.040;15.294;2022-07-30T11:38:04;24.90;54.40
65038;DHT22;51605;47.040;15.294;2022-07-30T11:43:27;24.80;54.40
65038;DHT22;51605;47.040;15.294;2022-07-30T11:46:18;24.90;54.40
65038;DHT22;51605;47.040;15.294;2022-07-30T11:48:58;24.80;54.40
65038;DHT22;51605;47.040;15.294;2022-07-30T11:51:24;24.80;54.40
65038;DHT22;51605;47.040;15.294;2022-07-30T11:54:03;24.80;54.40
65038;DHT22;51605;47.040;15.294;2022-07-30T11:56:29;24.80;54.30
65038;DHT22;51605;47.040;15.294;2022-07-30T11:59:05;24.80;54.30
65038;DHT22;51605;47.040;15.294;2022-07-30T12:01:31;24.80;54.30
65038;DHT22;51605;47.040;15.294;2022-07-30T12:04:05;24.80;54.30
65038;DHT22;51605;47.040;15.294;2022-07-30T12:06:31;24.80;54.30
65038;DHT22;51605;47.040;15.294;2022-07-30T12:08:58;24.80;55.30
65038;DHT22;51605;47.040;15.294;2022-07-30T12:11:30;24.70;54.30
65038;DHT22;51605;47.040;15.294;2022-07-30T12:13:58;24.80;54.40
65038;DHT22;51605;47.040;15.294;2022-07-30T12:16:25;24.70;54.20
65038;DHT22;51605;47.040;15.294;2022-07-30T12:18:52;24.70;54.20
65038;DHT22;51605;47.040;15.294;2022-07-30T12:21:18;24.70;54.20
65038;DHT22;51605;47.040;15.294;2022-07-30T12:23:56;24.70;54.20
65038;DHT22;51605;47.040;15.294;2022-07-30T12:26:27;24.70;54.20
65038;DHT22;51605;47.040;15.294;2022-07-30T12:28:55;24.70;54.20
65038;DHT22;51605;47.040;15.294;2022-07-30T12:31:21;24.70;54.20
65038;DHT22;51605;47.040;15.294;2022-07-30T12:33:47;24.70;54.30
65038;DHT22;51605;47.040;15.294;2022-07-30T12:36:33;24.70;54.30
65038;DHT22;51605;47.040;15.294;2022-07-30T12:39:00;24.70;54.80
65038;DHT22;51605;47.040;15.294;2022-07-30T12:41:43;24.70;54.80
65038;DHT22;51605;47.040;15.294;2022-07-30T12:44:09;24.70;55.90
65038;DHT22;51605;47.040;15.294;2022-07-30T12:46:39;24.80;55.00
65038;DHT22;51605;47.040;15.294;2022-07-30T12:49:06;24.80;56.20
65038;DHT22;51605;47.040;15.294;2022-07-30T12:51:34;24.80;55.60
65038;DHT22;51605;47.040;15.294;2022-07-30T12:54:01;24.80;55.60
65038;DHT22;51605;47.040;15.294;2022-07-30T12:56:38;24.90;55.60
65038;DHT22;51605;47.040;15.294;2022-07-30T12:59:04;25.00;55.50
65038;DHT22;51605;47.040;15.294;2022-07-30T13:01:44;25.10;55.50
65038;DHT22;51605;47.040;15.294;2022-07-30T13:04:10;25.10;55.50
65038;DHT22;51605;47.040;15.294;2022-07-30T13:06:37;25.20;55.30
65038;DHT22;51605;47.040;15.294;2022-07-30T13:09:05;25.20;55.30
65038;DHT22;51605;47.040;15.294;2022-07-30T13:11:42;25.30;55.20
65038;DHT22;51605;47.040;15.294;2022-07-30T13:14:09;25.30;55.20
65038;DHT22;51605;47.040;15.294;2022-07-30T13:16:37;25.40;55.20
65038;DHT22;51605;47.040;15.294;2022-07-30T13:19:04;25.40;55.10
65038;DHT22;51605;47.040;15.294;2022-07-30T13:21:29;25.40;55.00
65038;DHT22;51605;47.040;15.294;2022-07-30T13:23:55;25.50;55.00
65038;DHT22;51605;47.040;15.294;2022-07-30T13:26:21;25.50;54.70
65038;DHT22;51605;47.040;15.294;2022-07-30T13:28:47;25.50;54.90
65038;DHT22;51605;47.040;15.294;2022-07-30T13:31:12;25.50;54.80
65038;DHT22;51605;47.040;15.294;2022-07-30T13:33:38;25.50;54.80
65038;DHT22;51605;47.040;15.294;2022-07-30T13:36:05;25.50;54.80
65038;DHT22;51605;47.040;15.294;2022-07-30T13:38:31;25.50;54.70
65038;DHT22;51605;47.040;15.294;2022-07-30T13:40:58;25.60;54.70
65038;DHT22;51605;47.040;15.294;2022-07-30T13:43:24;25.60;54.70
65038;DHT22;51605;47.040;15.294;2022-07-30T13:45:50;25.60;54.70
65038;DHT22;51605;47.040;15.294;2022-07-30T13:48:16;25.60;54.60
65038;DHT22;51605;47.040;15.294;2022-07-30T13:50:43;25.50;54.50
65038;DHT22;51605;47.040;15.294;2022-07-30T13:53:09;25.50;54.50
65038;DHT22;51605;47.040;15.294;2022-07-30T13:55:37;25.50;54.50
65038;DHT22;51605;47.040;15.294;2022-07-30T13:58:03;25.50;54.60
65038;DHT22;51605;47.040;15.294;2022-07-30T14:00:31;25.40;54.10
65038;DHT22;51605;47.040;15.294;2022-07-30T14:03:06;25.30;53.80
65038;DHT22;51605;47.040;15.294;2022-07-30T14:05:32;25.20;54.60
65038;DHT22;51605;47.040;15.294;2022-07-30T14:07:58;25.10;53.60
65038;DHT22;51605;47.040;15.294;2022-07-30T14:10:24;25.00;53.40
65038;DHT22;51605;47.040;15.294;2022-07-30T14:12:51;25.00;53.20
65038;DHT22;51605;47.040;15.294;2022-07-30T14:15:21;25.00;53.60
65038;DHT22;51605;47.040;15.294;2022-07-30T14:17:47;25.00;54.90
65038;DHT22;51605;47.040;15.294;2022-07-30T14:20:12;25.00;54.80
65038;DHT22;51605;47.040;15.294;2022-07-30T14:22:38;25.00;53.80
65038;DHT22;51605;47.040;15.294;2022-07-30T14:25:04;25.00;53.40
65038;DHT22;51605;47.040;15.294;2022-07-30T14:27:30;25.00;53.10
65038;DHT22;51605;47.040;15.294;2022-07-30T14:29:56;25.00;52.60
65038;DHT22;51605;47.040;15.294;2022-07-30T14:32:22;25.00;52.40
65038;DHT22;51605;47.040;15.294;2022-07-30T14:34:47;25.00;52.00
65038;DHT22;51605;47.040;15.294;2022-07-30T14:37:13;25.00;51.70
65038;DHT22;51605;47.040;15.294;2022-07-30T14:39:39;25.00;51.50
65038;DHT22;51605;47.040;15.294;2022-07-30T14:42:07;24.90;51.40
65038;DHT22;51605;47.040;15.294;2022-07-30T14:44:32;24.90;51.10
65038;DHT22;51605;47.040;15.294;2022-07-30T14:46:58;24.90;51.00
65038;DHT22;51605;47.040;15.294;2022-07-30T14:49:24;24.90;51.00
65038;DHT22;51605;47.040;15.294;2022-07-30T14:51:50;24.90;50.90
65038;DHT22;51605;47.040;15.294;2022-07-30T14:54:15;24.90;50.70
65038;DHT22;51605;47.040;15.294;2022-07-30T14:56:41;24.90;50.40
65038;DHT22;51605;47.040;15.294;2022-07-30T14:59:07;24.90;50.40
65038;DHT22;51605;47.040;15.294;2022-07-30T15:01:33;24.90;50.20
65038;DHT22;51605;47.040;15.294;2022-07-30T15:03:59;24.90;50.20
65038;DHT22;51605;47.040;15.294;2022-07-30T15:06:26;24.80;49.90
65038;DHT22;51605;47.040;15.294;2022-07-30T15:08:52;24.80;49.80
65038;DHT22;51605;47.040;15.294;2022-07-30T15:11:17;24.80;49.70
65038;DHT22;51605;47.040;15.294;2022-07-30T15:13:43;24.80;49.50
65038;DHT22;51605;47.040;15.294;2022-07-30T15:16:09;24.80;49.40
65038;DHT22;51605;47.040;15.294;2022-07-30T15:18:35;24.80;49.30
65038;DHT22;51605;47.040;15.294;2022-07-30T15:21:00;24.80;49.20
65038;DHT22;51605;47.040;15.294;2022-07-30T15:23:26;24.80;49.20
65038;DHT22;51605;47.040;15.294;2022-07-30T15:25:52;24.80;49.00
65038;DHT22;51605;47.040;15.294;2022-07-30T15:28:17;24.80;48.90
65038;DHT22;51605;47.040;15.294;2022-07-30T15:30:44;24.80;48.90
65038;DHT22;51605;47.040;15.294;2022-07-30T15:33:09;24.90;48.80
65038;DHT22;51605;47.040;15.294;2022-07-30T15:35:35;24.90;48.90
65038;DHT22;51605;47.040;15.294;2022-07-30T15:38:01;24.80;48.80
65038;DHT22;51605;47.040;15.294;2022-07-30T15:40:26;24.90;49.00
65038;DHT22;51605;47.040;15.294;2022-07-30T15:42:52;24.90;49.10
65038;DHT22;51605;47.040;15.294;2022-07-30T15:45:18;24.90;49.10
65038;DHT22;51605;47.040;15.294;2022-07-30T15:47:44;24.90;49.20
65038;DHT22;51605;47.040;15.294;2022-07-30T15:50:10;24.90;49.20
65038;DHT22;51605;47.040;15.294;2022-07-30T15:52:36;25.00;49.40